Time;durP1;ratioP1;P1;durP2;ratioP2;P2;SDS_P1;SDS_P2;PMS_P1;PMS_P2;Temp;Humidity;BMP_temperature;BMP_pressure;BME280_temperature;BME280_humidity;BME280_pressure;Samples;Min_cycle;Max_cycle;Signal;HPM_P1;HPM_P2
2020/12/08 00:01:55;;;;;;;33.50;13.48;;;;;;;-0.79;100.00;100217.73;10797022;81;21102;-88
2020/12/08 00:17:02;;;;;;;38.53;15.25;;;;;;;-0.91;100.00;100235.39;10788559;81;21054;-84
2020/12/08 00:32:08;;;;;;;33.60;15.13;;;;;;;-1.18;100.00;100238.17;10736714;82;21049;-83
2020/12/08 00:47:12;;;;;;;51.37;18.37;;;;;;;-1.19;100.00;100251.97;10769727;82;21042;-84
2020/12/08 01:02:18;;;;;;;49.80;18.25;;;;;;;-1.07;100.00;100239.05;10732131;82;21044;-83
2020/12/08 01:17:22;;;;;;;37.30;15.63;;;;;;;-1.22;100.00;100244.34;10693126;82;21045;-84
2020/12/08 01:32:26;;;;;;;31.00;14.28;;;;;;;-1.04;100.00;100243.23;10692876;80;21083;-81
2020/12/08 01:47:31;;;;;;;32.53;14.20;;;;;;;-0.93;100.00;100234.61;10725095;80;21373;-83
2020/12/08 02:02:36;;;;;;;39.23;14.70;;;;;;;-0.95;100.00;100229.12;10720283;81;21512;-81
2020/12/08 02:17:41;;;;;;;29.60;14.03;;;;;;;-0.96;100.00;100221.86;10816907;81;21210;-84
2020/12/08 02:32:46;;;;;;;36.48;16.80;;;;;;;-0.99;100.00;100229.73;10835937;81;21172;-84
2020/12/08 02:47:51;;;;;;;35.00;15.00;;;;;;;-0.89;100.00;100221.98;10685394;82;21041;-85
2020/12/08 03:02:55;;;;;;;34.48;16.07;;;;;;;-0.64;100.00;100233.84;10885895;82;21478;-81
2020/12/08 03:17:59;;;;;;;30.20;14.03;;;;;;;-0.57;100.00;100217.23;10796868;82;21454;-82
2020/12/08 03:33:04;;;;;;;30.77;14.13;;;;;;;-0.70;100.00;100199.31;10836767;82;21127;-83
2020/12/08 03:48:09;;;;;;;26.80;13.58;;;;;;;-0.69;100.00;100217.31;10778855;82;21022;-83
2020/12/08 04:03:14;;;;;;;34.07;15.00;;;;;;;-0.42;100.00;100221.32;10841387;82;21132;-81
2020/12/08 04:18:18;;;;;;;72.37;45.43;;;;;;;-0.60;100.00;100228.95;10504001;84;21171;-80
2020/12/08 04:33:22;;;;;;;116.33;43.40;;;;;;;-0.59;100.00;100232.38;10660667;83;21080;-80
2020/12/08 04:48:29;;;;;;;30.17;14.43;;;;;;;-0.43;99.47;100232.55;10570250;83;21045;-82
2020/12/08 05:03:34;;;;;;;20.52;10.85;;;;;;;-0.60;98.43;100226.37;10360726;83;21037;-84
2020/12/08 05:18:39;;;;;;;21.65;11.60;;;;;;;-0.56;98.07;100240.80;10509102;83;21087;-83
2020/12/08 05:33:48;;;;;;;40.65;21.45;;;;;;;-0.49;98.12;100225.91;10647768;82;21061;-81
2020/12/08 05:48:58;;;;;;;18.07;8.75;;;;;;;-0.45;98.15;100237.78;10414612;84;21053;-81
2020/12/08 06:04:02;;;;;;;102.72;26.45;;;;;;;-0.56;98.54;100238.22;10464544;84;21068;-82
2020/12/08 06:19:06;;;;;;;82.60;22.45;;;;;;;-0.47;98.48;100244.73;10463664;83;21485;-81
2020/12/08 06:34:18;;;;;;;65.87;21.27;;;;;;;-0.44;98.74;100256.19;10784136;81;21175;-81
2020/12/08 06:49:23;;;;;;;48.45;16.42;;;;;;;-0.59;98.95;100258.15;10759628;82;21151;-84
2020/12/08 07:04:29;;;;;;;17.62;9.38;;;;;;;-0.47;98.49;100267.10;10779498;82;21497;-85
2020/12/08 07:19:34;;;;;;;23.67;10.43;;;;;;;-0.36;97.45;100289.38;10822323;81;21582;-84
2020/12/08 07:34:49;;;;;;;18.73;8.75;;;;;;;-0.42;96.72;100289.62;10852567;82;21122;-85
2020/12/08 07:49:53;;;;;;;202.25;66.15;;;;;;;-0.40;96.92;100313.61;10840066;81;21086;-83
2020/12/08 08:04:58;;;;;;;506.90;246.40;;;;;;;-0.31;97.14;100311.94;10850157;81;21033;-84
2020/12/08 08:20:04;;;;;;;53.13;18.37;;;;;;;-0.46;97.46;100306.13;10750011;82;21080;-83
2020/12/08 08:35:09;;;;;;;69.67;19.80;;;;;;;-0.45;98.55;100300.08;10754829;82;21093;-82
2020/12/08 08:50:15;;;;;;;153.47;46.93;;;;;;;-0.41;98.74;100316.66;10684644;82;21073;-81
2020/12/08 09:05:20;;;;;;;100.38;26.27;;;;;;;-0.34;97.93;100315.95;10751474;81;21586;-84
2020/12/08 09:20:25;;;;;;;59.33;21.83;;;;;;;-0.47;97.42;100327.21;10701692;82;21095;-84
2020/12/08 09:35:31;;;;;;;48.15;18.80;;;;;;;-0.60;100.00;100359.09;10762201;82;21041;-83
2020/12/08 09:50:39;;;;;;;61.08;19.90;;;;;;;-0.58;100.00;100358.59;10672583;82;21044;-84
2020/12/08 10:05:44;;;;;;;43.85;17.17;;;;;;;-0.56;100.00;100359.34;10655244;82;21020;-84
2020/12/08 10:20:49;;;;;;;52.85;23.30;;;;;;;-0.61;100.00;100367.70;10661545;82;21559;-83
2020/12/08 10:35:56;;;;;;;62.93;22.17;;;;;;;-0.46;100.00;100367.99;10696565;82;21025;-83
2020/12/08 10:51:01;;;;;;;98.97;34.83;;;;;;;-0.48;100.00;100315.22;10689664;82;21037;-83
2020/12/08 11:06:06;;;;;;;158.73;52.07;;;;;;;-0.48;100.00;100315.22;10651653;82;21001;-82
2020/12/08 11:21:13;;;;;;;67.80;25.33;;;;;;;-0.25;100.00;100323.72;10730925;80;21025;-83
2020/12/08 11:36:20;;;;;;;77.40;25.43;;;;;;;-0.27;100.00;100298.47;10762451;80;20989;-83
2020/12/08 11:51:26;;;;;;;;;;;;;;;-0.06;100.00;100290.26;10768360;80;21089;-85
2020/12/08 12:06:32;;;;;;;112.35;50.12;;;;;;;-0.11;100.00;100311.08;10771594;82;20217;-85
2020/12/08 12:21:39;;;;;;;152.40;60.70;;;;;;;-0.17;100.00;100337.15;10747636;82;21013;-86
2020/12/08 12:36:49;;;;;;;61.48;23.30;;;;;;;0.09;100.00;100345.06;10766768;82;21088;-84
2020/12/08 12:51:55;;;;;;;78.25;30.55;;;;;;;0.07;100.00;100332.67;10739296;81;21064;-84
2020/12/08 13:07:00;;;;;;;135.43;41.57;;;;;;;0.20;100.00;100324.38;10698756;82;21029;-85
2020/12/08 13:22:05;;;;;;;255.12;56.05;;;;;;;0.40;100.00;100322.22;10787040;82;21031;-84
2020/12/08 13:37:10;;;;;;;178.17;44.63;;;;;;;0.37;100.00;100347.71;10794263;82;21039;-83
2020/12/08 13:52:16;;;;;;;104.60;31.40;;;;;;;0.41;100.00;100353.12;10721164;82;21001;-84
2020/12/08 14:07:21;;;;;;;126.35;38.10;;;;;;;0.42;100.00;100340.61;10771200;80;21158;-84
2020/12/08 14:22:27;;;;;;;509.43;148.37;;;;;;;0.42;100.00;100356.09;10753545;80;21541;-84
2020/12/08 14:37:34;;;;;;;124.55;40.00;;;;;;;0.40;100.00;100373.84;10800542;82;21237;-85
2020/12/08 14:52:39;;;;;;;78.97;30.05;;;;;;;0.23;100.00;100368.95;10766599;81;21447;-85
2020/12/08 15:07:44;;;;;;;71.07;26.10;;;;;;;0.24;100.00;100392.57;10768022;81;21045;-84
2020/12/08 15:22:49;;;;;;;83.33;26.50;;;;;;;0.31;100.00;100406.05;10735994;81;21032;-85
2020/12/08 15:37:56;;;;;;;89.70;31.48;;;;;;;0.38;100.00;100430.67;10676382;82;21092;-85
2020/12/08 15:53:02;;;;;;;88.80;33.53;;;;;;;0.26;100.00;100444.94;10663954;81;21092;-84
2020/12/08 16:08:07;;;;;;;65.35;26.50;;;;;;;0.20;100.00;100441.78;10440731;83;21093;-83
2020/12/08 16:23:12;;;;;;;67.12;27.85;;;;;;;0.16;100.00;100454.00;10711156;80;21128;-84
2020/12/08 16:38:17;;;;;;;113.03;46.10;;;;;;;0.08;100.00;100456.89;10689784;81;21089;-83
2020/12/08 16:53:22;;;;;;;60.03;27.85;;;;;;;0.05;100.00;100462.16;10689370;80;21015;-86
2020/12/08 17:08:27;;;;;;;58.23;26.33;;;;;;;0.10;100.00;100458.11;10649624;80;21055;-84
2020/12/08 17:23:33;;;;;;;81.10;29.27;;;;;;;-0.06;100.00;100454.05;10665132;81;20997;-83
2020/12/08 17:38:39;;;;;;;46.25;20.92;;;;;;;-0.13;100.00;100466.35;10744758;82;21031;-84
2020/12/08 17:53:44;;;;;;;47.10;19.73;;;;;;;-0.07;100.00;100469.12;10838745;81;21052;-84
2020/12/08 18:08:49;;;;;;;53.13;21.62;;;;;;;-0.12;100.00;100486.09;10812359;82;21128;-83
2020/12/08 18:23:54;;;;;;;61.83;22.65;;;;;;;-0.07;100.00;100493.63;10664379;82;21103;-84
2020/12/08 18:39:01;;;;;;;49.27;20.48;;;;;;;-0.03;100.00;100512.80;10684426;83;21493;-86
2020/12/08 18:54:07;;;;;;;50.20;21.90;;;;;;;-0.24;100.00;100526.53;10558590;84;21087;-85
2020/12/08 19:09:13;;;;;;;51.03;20.43;;;;;;;-0.25;100.00;100528.71;10688497;82;21017;-84
2020/12/08 19:24:17;;;;;;;;;;;;;;;-0.32;100.00;100533.73;10666132;82;21124;-86
2020/12/08 19:39:23;;;;;;;66.65;29.72;;;;;;;-0.25;100.00;100539.89;10644651;82;20152;-88
2020/12/08 19:54:29;;;;;;;65.83;28.43;;;;;;;-0.28;100.00;100555.45;10646626;82;21040;-87
2020/12/08 20:09:33;;;;;;;61.80;26.93;;;;;;;-0.27;100.00;100554.56;10629875;82;21106;-86
2020/12/08 20:24:39;;;;;;;65.85;24.57;;;;;;;-0.24;100.00;100553.61;10750872;81;21476;-86
2020/12/08 20:39:44;;;;;;;65.60;25.97;;;;;;;-0.31;100.00;100528.52;10837593;82;21111;-86
2020/12/08 20:54:48;;;;;;;67.45;26.30;;;;;;;-0.60;100.00;100548.50;10825177;80;21080;-87
2020/12/08 21:09:53;;;;;;;61.10;26.40;;;;;;;-0.71;100.00;100545.50;10783403;81;20993;-86
2020/12/08 21:24:57;;;;;;;68.85;28.57;;;;;;;-0.42;100.00;100564.16;10766511;80;21064;-85
2020/12/08 21:40:02;;;;;;;66.17;25.95;;;;;;;-0.39;100.00;100588.10;10755700;81;21052;-84
2020/12/08 21:55:09;;;;;;;77.37;29.87;;;;;;;-0.29;100.00;100574.43;10717232;82;21090;-82
2020/12/08 22:10:14;;;;;;;71.82;27.70;;;;;;;-0.37;100.00;100569.56;10770356;82;21135;-85
2020/12/08 22:25:20;;;;;;;67.30;25.10;;;;;;;-0.37;100.00;100569.56;10733667;82;21044;-84
2020/12/08 22:40:24;;;;;;;62.53;24.57;;;;;;;-0.70;100.00;100578.08;10471532;84;21056;-83
2020/12/08 22:55:29;;;;;;;61.70;25.85;;;;;;;-0.35;100.00;100581.09;10712777;82;21025;-82
2020/12/08 23:10:33;;;;;;;61.05;23.02;;;;;;;-0.47;100.00;100577.24;10710017;82;21072;-82
2020/12/08 23:25:55;;;;;;;73.95;26.73;;;;;;;-0.73;100.00;100555.84;10657424;81;21583;-85
2020/12/08 23:41:00;;;;;;;56.88;22.80;;;;;;;-0.67;100.00;100557.38;10734659;82;21043;-84
2020/12/08 23:56:05;;;;;;;46.65;16.67;;;;;;;-0.70;100.00;100554.89;10753096;81;21453;-84
